sensor_id;sensor_type;location;lat;lon;timestamp;temperature;humidity
56046;DHT22;41913;51.030;3.706;2023-02-28T00:00:23;17.60;71.20
56046;DHT22;41913;51.030;3.706;2023-02-28T00:02:49;17.60;71.20
56046;DHT22;41913;51.030;3.706;2023-02-28T00:05:17;17.60;71.20
56046;DHT22;41913;51.030;3.706;2023-02-28T00:07:44;17.60;71.20
56046;DHT22;41913;51.030;3.706;2023-02-28T00:10:11;17.50;71.10
56046;DHT22;41913;51.030;3.706;2023-02-28T00:12:38;17.50;71.10
56046;DHT22;41913;51.030;3.706;2023-02-28T00:15:09;17.50;71.10
56046;DHT22;41913;51.030;3.706;2023-02-28T00:17:36;17.50;71.10
56046;DHT22;41913;51.030;3.706;2023-02-28T00:20:03;17.50;71.10
56046;DHT22;41913;51.030;3.706;2023-02-28T00:22:39;17.50;71.10
56046;DHT22;41913;51.030;3.706;2023-02-28T00:25:06;17.50;71.10
56046;DHT22;41913;51.030;3.706;2023-02-28T00:27:35;17.50;71.10
56046;DHT22;41913;51.030;3.706;2023-02-28T00:30:02;17.50;71.10
56046;DHT22;41913;51.030;3.706;2023-02-28T00:32:29;17.50;71.60
56046;DHT22;41913;51.030;3.706;2023-02-28T00:34:55;17.50;71.10
56046;DHT22;41913;51.030;3.706;2023-02-28T00:37:21;17.50;71.10
56046;DHT22;41913;51.030;3.706;2023-02-28T00:39:46;17.50;71.10
56046;DHT22;41913;51.030;3.706;2023-02-28T00:42:12;17.50;71.10
56046;DHT22;41913;51.030;3.706;2023-02-28T00:44:37;17.50;71.10
56046;DHT22;41913;51.030;3.706;2023-02-28T00:47:03;17.40;71.10
56046;DHT22;41913;51.030;3.706;2023-02-28T00:49:29;17.40;71.10
56046;DHT22;41913;51.030;3.706;2023-02-28T00:51:55;17.40;71.10
56046;DHT22;41913;51.030;3.706;2023-02-28T00:54:22;17.40;71.10
56046;DHT22;41913;51.030;3.706;2023-02-28T00:56:48;17.40;71.10
56046;DHT22;41913;51.030;3.706;2023-02-28T00:59:15;17.40;71.10
56046;DHT22;41913;51.030;3.706;2023-02-28T01:01:42;17.40;71.10
56046;DHT22;41913;51.030;3.706;2023-02-28T01:04:08;17.40;71.10
56046;DHT22;41913;51.030;3.706;2023-02-28T01:06:35;17.40;71.10
56046;DHT22;41913;51.030;3.706;2023-02-28T01:09:03;17.40;71.00
56046;DHT22;41913;51.030;3.706;2023-02-28T01:11:30;17.40;71.10
56046;DHT22;41913;51.030;3.706;2023-02-28T01:13:55;17.40;71.00
56046;DHT22;41913;51.030;3.706;2023-02-28T01:16:21;17.30;71.00
56046;DHT22;41913;51.030;3.706;2023-02-28T01:18:47;17.40;71.00
56046;DHT22;41913;51.030;3.706;2023-02-28T01:21:15;17.30;71.00
56046;DHT22;41913;51.030;3.706;2023-02-28T01:23:41;17.30;71.00
56046;DHT22;41913;51.030;3.706;2023-02-28T01:26:13;17.30;71.00
56046;DHT22;41913;51.030;3.706;2023-02-28T01:28:39;17.30;71.00
56046;DHT22;41913;51.030;3.706;2023-02-28T01:31:05;17.30;71.00
56046;DHT22;41913;51.030;3.706;2023-02-28T01:33:31;17.30;71.00
56046;DHT22;41913;51.030;3.706;2023-02-28T01:36:02;17.30;71.00
56046;DHT22;41913;51.030;3.706;2023-02-28T01:38:28;17.30;71.00
56046;DHT22;41913;51.030;3.706;2023-02-28T01:40:54;17.30;71.00
56046;DHT22;41913;51.030;3.706;2023-02-28T01:43:31;17.30;71.00
56046;DHT22;41913;51.030;3.706;2023-02-28T01:45:58;17.30;71.00
56046;DHT22;41913;51.030;3.706;2023-02-28T01:48:37;17.30;71.00
56046;DHT22;41913;51.030;3.706;2023-02-28T01:51:11;17.30;71.00
56046;DHT22;41913;51.030;3.706;2023-02-28T01:53:44;17.30;71.00
56046;DHT22;41913;51.030;3.706;2023-02-28T01:56:12;17.30;71.00
56046;DHT22;41913;51.030;3.706;2023-02-28T01:58:39;17.20;71.00
56046;DHT22;41913;51.030;3.706;2023-02-28T02:01:05;17.30;71.00
56046;DHT22;41913;51.030;3.706;2023-02-28T02:03:31;17.20;70.90
56046;DHT22;41913;51.030;3.706;2023-02-28T02:05:57;17.30;71.00
56046;DHT22;41913;51.030;3.706;2023-02-28T02:08:24;17.20;70.90
56046;DHT22;41913;51.030;3.706;2023-02-28T02:11:01;17.30;71.50
56046;DHT22;41913;51.030;3.706;2023-02-28T02:14:07;17.20;70.90
56046;DHT22;41913;51.030;3.706;2023-02-28T02:16:54;17.20;70.90
56046;DHT22;41913;51.030;3.706;2023-02-28T02:25:01;17.20;71.00
56046;DHT22;41913;51.030;3.706;2023-02-28T02:36:08;17.20;70.90
56046;DHT22;41913;51.030;3.706;2023-02-28T02:41:23;17.10;70.90
56046;DHT22;41913;51.030;3.706;2023-02-28T02:43:54;17.10;70.90
56046;DHT22;41913;51.030;3.706;2023-02-28T02:46:55;17.10;70.90
56046;DHT22;41913;51.030;3.706;2023-02-28T02:49:19;17.10;70.90
56046;DHT22;41913;51.030;3.706;2023-02-28T02:51:46;17.10;70.90
56046;DHT22;41913;51.030;3.706;2023-02-28T02:54:25;17.10;70.90
56046;DHT22;41913;51.030;3.706;2023-02-28T02:56:58;17.10;70.90
56046;DHT22;41913;51.030;3.706;2023-02-28T02:59:25;17.10;70.80
56046;DHT22;41913;51.030;3.706;2023-02-28T03:01:56;17.10;70.80
56046;DHT22;41913;51.030;3.706;2023-02-28T03:04:24;17.10;70.80
56046;DHT22;41913;51.030;3.706;2023-02-28T03:06:51;17.10;70.80
56046;DHT22;41913;51.030;3.706;2023-02-28T03:09:23;17.10;70.80
56046;DHT22;41913;51.030;3.706;2023-02-28T03:11:52;17.10;70.80
56046;DHT22;41913;51.030;3.706;2023-02-28T03:14:51;17.10;70.80
56046;DHT22;41913;51.030;3.706;2023-02-28T03:25:34;17.00;70.80
56046;DHT22;41913;51.030;3.706;2023-02-28T03:33:27;17.00;70.80
56046;DHT22;41913;51.030;3.706;2023-02-28T03:36:04;17.00;70.80
56046;DHT22;41913;51.030;3.706;2023-02-28T03:38:38;17.00;70.90
56046;DHT22;41913;51.030;3.706;2023-02-28T03:41:19;17.00;70.90
56046;DHT22;41913;51.030;3.706;2023-02-28T03:43:53;16.90;70.80
56046;DHT22;41913;51.030;3.706;2023-02-28T03:46:23;17.00;70.90
56046;DHT22;41913;51.030;3.706;2023-02-28T03:48:57;17.00;70.90
56046;DHT22;41913;51.030;3.706;2023-02-28T03:51:27;17.00;70.90
56046;DHT22;41913;51.030;3.706;2023-02-28T03:53:58;17.00;70.90
56046;DHT22;41913;51.030;3.706;2023-02-28T03:56:32;17.00;70.90
56046;DHT22;41913;51.030;3.706;2023-02-28T03:59:04;17.00;70.90
56046;DHT22;41913;51.030;3.706;2023-02-28T04:04:01;17.00;70.90
56046;DHT22;41913;51.030;3.706;2023-02-28T04:06:27;16.90;70.90
56046;DHT22;41913;51.030;3.706;2023-02-28T04:08:56;16.90;70.90
56046;DHT22;41913;51.030;3.706;2023-02-28T04:11:29;17.00;71.00
56046;DHT22;41913;51.030;3.706;2023-02-28T04:13:56;16.90;70.90
56046;DHT22;41913;51.030;3.706;2023-02-28T04:16:22;16.90;70.90
56046;DHT22;41913;51.030;3.706;2023-02-28T04:18:50;16.90;70.90
56046;DHT22;41913;51.030;3.706;2023-02-28T04:21:15;16.90;70.90
56046;DHT22;41913;51.030;3.706;2023-02-28T04:23:41;16.90;71.00
56046;DHT22;41913;51.030;3.706;2023-02-28T04:26:06;16.90;71.00
56046;DHT22;41913;51.030;3.706;2023-02-28T04:28:33;16.90;71.00
56046;DHT22;41913;51.030;3.706;2023-02-28T04:31:01;16.80;70.90
56046;DHT22;41913;51.030;3.706;2023-02-28T04:33:27;16.90;71.00
56046;DHT22;41913;51.030;3.706;2023-02-28T04:36:06;16.90;71.00
56046;DHT22;41913;51.030;3.706;2023-02-28T04:38:35;16.90;71.00
56046;DHT22;41913;51.030;3.706;2023-02-28T04:41:01;16.90;71.00
56046;DHT22;41913;51.030;3.706;2023-02-28T04:43:28;16.90;71.00
56046;DHT22;41913;51.030;3.706;2023-02-28T04:45:55;16.90;71.00
56046;DHT22;41913;51.030;3.706;2023-02-28T04:48:27;16.90;71.10
56046;DHT22;41913;51.030;3.706;2023-02-28T04:50:53;16.80;71.10
56046;DHT22;41913;51.030;3.706;2023-02-28T04:53:19;16.80;71.10
56046;DHT22;41913;51.030;3.706;2023-02-28T04:55:45;16.80;71.10
56046;DHT22;41913;51.030;3.706;2023-02-28T04:58:15;16.90;71.10
56046;DHT22;41913;51.030;3.706;2023-02-28T05:00:41;16.80;71.10
56046;DHT22;41913;51.030;3.706;2023-02-28T05:03:07;16.80;71.10
56046;DHT22;41913;51.030;3.706;2023-02-28T05:05:32;16.80;71.10
56046;DHT22;41913;51.030;3.706;2023-02-28T05:07:59;16.80;71.20
56046;DHT22;41913;51.030;3.706;2023-02-28T05:10:26;16.80;71.20
56046;DHT22;41913;51.030;3.706;2023-02-28T05:12:52;16.80;71.20
56046;DHT22;41913;51.030;3.706;2023-02-28T05:15:18;16.80;71.20
56046;DHT22;41913;51.030;3.706;2023-02-28T05:17:44;16.80;71.20
56046;DHT22;41913;51.030;3.706;2023-02-28T05:20:12;16.80;71.20
56046;DHT22;41913;51.030;3.706;2023-02-28T05:22:40;16.80;71.30
56046;DHT22;41913;51.030;3.706;2023-02-28T05:25:08;16.80;71.50
56046;DHT22;41913;51.030;3.706;2023-02-28T05:27:36;16.80;71.30
56046;DHT22;41913;51.030;3.706;2023-02-28T05:30:02;16.80;71.30
56046;DHT22;41913;51.030;3.706;2023-02-28T05:32:29;16.70;71.30
56046;DHT22;41913;51.030;3.706;2023-02-28T05:34:55;16.70;71.30
56046;DHT22;41913;51.030;3.706;2023-02-28T05:37:21;16.70;71.40
56046;DHT22;41913;51.030;3.706;2023-02-28T05:39:47;16.70;71.40
56046;DHT22;41913;51.030;3.706;2023-02-28T05:42:12;16.70;72.00
56046;DHT22;41913;51.030;3.706;2023-02-28T05:44:38;16.70;71.40
56046;DHT22;41913;51.030;3.706;2023-02-28T05:47:03;16.70;71.40
56046;DHT22;41913;51.030;3.706;2023-02-28T05:49:29;16.70;71.40
56046;DHT22;41913;51.030;3.706;2023-02-28T05:51:55;16.70;71.40
56046;DHT22;41913;51.030;3.706;2023-02-28T05:54:20;16.70;71.50
56046;DHT22;41913;51.030;3.706;2023-02-28T05:56:46;16.70;71.50
56046;DHT22;41913;51.030;3.706;2023-02-28T05:59:12;16.70;71.60
56046;DHT22;41913;51.030;3.706;2023-02-28T06:01:40;16.70;71.50
56046;DHT22;41913;51.030;3.706;2023-02-28T06:04:09;16.70;71.60
56046;DHT22;41913;51.030;3.706;2023-02-28T06:06:36;16.70;71.60
56046;DHT22;41913;51.030;3.706;2023-02-28T06:09:03;16.70;71.60
56046;DHT22;41913;51.030;3.706;2023-02-28T06:11:29;16.70;71.60
56046;DHT22;41913;51.030;3.706;2023-02-28T06:13:59;16.70;71.70
56046;DHT22;41913;51.030;3.706;2023-02-28T06:16:27;16.70;71.70
56046;DHT22;41913;51.030;3.706;2023-02-28T06:18:54;16.60;71.70
56046;DHT22;41913;51.030;3.706;2023-02-28T06:21:21;16.70;71.80
56046;DHT22;41913;51.030;3.706;2023-02-28T06:23:47;16.70;71.90
56046;DHT22;41913;51.030;3.706;2023-02-28T06:26:12;16.70;72.00
56046;DHT22;41913;51.030;3.706;2023-02-28T06:28:38;16.80;72.50
56046;DHT22;41913;51.030;3.706;2023-02-28T06:31:08;16.90;73.30
56046;DHT22;41913;51.030;3.706;2023-02-28T06:33:35;17.10;74.20
56046;DHT22;41913;51.030;3.706;2023-02-28T06:36:01;17.20;75.00
56046;DHT22;41913;51.030;3.706;2023-02-28T06:38:27;17.30;75.50
56046;DHT22;41913;51.030;3.706;2023-02-28T06:40:54;17.40;75.90
56046;DHT22;41913;51.030;3.706;2023-02-28T06:43:23;17.50;76.10
56046;DHT22;41913;51.030;3.706;2023-02-28T06:45:49;17.60;76.30
56046;DHT22;41913;51.030;3.706;2023-02-28T06:48:15;17.70;76.30
56046;DHT22;41913;51.030;3.706;2023-02-28T06:50:40;17.80;76.30
56046;DHT22;41913;51.030;3.706;2023-02-28T06:53:06;17.80;76.30
56046;DHT22;41913;51.030;3.706;2023-02-28T06:55:32;17.90;76.30
56046;DHT22;41913;51.030;3.706;2023-02-28T06:57:58;18.00;76.30
56046;DHT22;41913;51.030;3.706;2023-02-28T07:00:24;18.10;76.30
56046;DHT22;41913;51.030;3.706;2023-02-28T07:02:50;18.20;76.40
56046;DHT22;41913;51.030;3.706;2023-02-28T07:05:16;18.20;76.10
56046;DHT22;41913;51.030;3.706;2023-02-28T07:07:42;18.40;75.60
56046;DHT22;41913;51.030;3.706;2023-02-28T07:10:11;18.40;75.00
56046;DHT22;41913;51.030;3.706;2023-02-28T07:12:37;18.50;74.40
56046;DHT22;41913;51.030;3.706;2023-02-28T07:15:04;18.50;73.80
56046;DHT22;41913;51.030;3.706;2023-02-28T07:17:30;18.60;73.30
56046;DHT22;41913;51.030;3.706;2023-02-28T07:19:55;18.70;73.00
56046;DHT22;41913;51.030;3.706;2023-02-28T07:22:21;18.80;72.70
56046;DHT22;41913;51.030;3.706;2023-02-28T07:24:47;18.80;72.40
56046;DHT22;41913;51.030;3.706;2023-02-28T07:27:13;18.90;72.10
56046;DHT22;41913;51.030;3.706;2023-02-28T07:29:51;18.90;71.80
56046;DHT22;41913;51.030;3.706;2023-02-28T07:32:18;19.00;71.60
56046;DHT22;41913;51.030;3.706;2023-02-28T07:34:44;19.00;71.30
56046;DHT22;41913;51.030;3.706;2023-02-28T07:37:10;19.10;71.30
56046;DHT22;41913;51.030;3.706;2023-02-28T07:39:35;19.10;71.10
56046;DHT22;41913;51.030;3.706;2023-02-28T07:42:05;19.20;71.00
56046;DHT22;41913;51.030;3.706;2023-02-28T07:44:31;19.20;70.90
56046;DHT22;41913;51.030;3.706;2023-02-28T07:46:58;19.30;70.70
56046;DHT22;41913;51.030;3.706;2023-02-28T07:49:23;19.30;71.20
56046;DHT22;41913;51.030;3.706;2023-02-28T07:51:49;19.40;70.50
56046;DHT22;41913;51.030;3.706;2023-02-28T07:54:15;19.40;70.40
56046;DHT22;41913;51.030;3.706;2023-02-28T07:56:40;19.50;70.40
56046;DHT22;41913;51.030;3.706;2023-02-28T07:59:06;19.50;70.30
56046;DHT22;41913;51.030;3.706;2023-02-28T08:01:32;19.50;70.30
56046;DHT22;41913;51.030;3.706;2023-02-28T08:03:57;19.60;70.30
56046;DHT22;41913;51.030;3.706;2023-02-28T08:06:24;19.60;70.20
56046;DHT22;41913;51.030;3.706;2023-02-28T08:08:50;19.70;70.20
56046;DHT22;41913;51.030;3.706;2023-02-28T08:11:17;19.70;70.30
56046;DHT22;41913;51.030;3.706;2023-02-28T08:13:44;19.70;70.10
56046;DHT22;41913;51.030;3.706;2023-02-28T08:16:11;19.80;69.90
56046;DHT22;41913;51.030;3.706;2023-02-28T08:18:37;19.80;69.70
56046;DHT22;41913;51.030;3.706;2023-02-28T08:21:09;19.90;69.50
56046;DHT22;41913;51.030;3.706;2023-02-28T08:23:35;19.90;69.30
56046;DHT22;41913;51.030;3.706;2023-02-28T08:26:01;20.00;69.10
56046;DHT22;41913;51.030;3.706;2023-02-28T08:28:27;20.00;69.00
56046;DHT22;41913;51.030;3.706;2023-02-28T08:30:54;20.10;68.90
56046;DHT22;41913;51.030;3.706;2023-02-28T08:33:20;20.10;68.80
56046;DHT22;41913;51.030;3.706;2023-02-28T08:35:45;20.20;68.90
56046;DHT22;41913;51.030;3.706;2023-02-28T08:38:11;20.30;68.80
56046;DHT22;41913;51.030;3.706;2023-02-28T08:40:37;20.30;68.60
56046;DHT22;41913;51.030;3.706;2023-02-28T08:43:02;20.30;68.50
56046;DHT22;41913;51.030;3.706;2023-02-28T08:45:28;20.40;68.40
56046;DHT22;41913;51.030;3.706;2023-02-28T08:47:54;20.40;68.20
56046;DHT22;41913;51.030;3.706;2023-02-28T08:50:21;20.40;68.10
56046;DHT22;41913;51.030;3.706;2023-02-28T08:52:47;20.50;68.00
56046;DHT22;41913;51.030;3.706;2023-02-28T08:55:13;20.50;67.90
56046;DHT22;41913;51.030;3.706;2023-02-28T08:57:38;20.50;67.70
56046;DHT22;41913;51.030;3.706;2023-02-28T09:00:04;20.50;68.20
56046;DHT22;41913;51.030;3.706;2023-02-28T09:02:33;20.60;67.90
56046;DHT22;41913;51.030;3.706;2023-02-28T09:04:59;20.70;68.10
56046;DHT22;41913;51.030;3.706;2023-02-28T09:07:25;20.60;68.00
56046;DHT22;41913;51.030;3.706;2023-02-28T09:09:51;20.70;68.00
56046;DHT22;41913;51.030;3.706;2023-02-28T09:12:26;20.70;68.10
56046;DHT22;41913;51.030;3.706;2023-02-28T09:14:52;20.70;68.00
56046;DHT22;41913;51.030;3.706;2023-02-28T09:17:19;20.80;67.90
56046;DHT22;41913;51.030;3.706;2023-02-28T09:19:47;20.70;67.70
56046;DHT22;41913;51.030;3.706;2023-02-28T09:22:12;20.80;67.60
56046;DHT22;41913;51.030;3.706;2023-02-28T09:24:38;20.80;67.50
56046;DHT22;41913;51.030;3.706;2023-02-28T09:27:04;20.80;67.30
56046;DHT22;41913;51.030;3.706;2023-02-28T09:29:32;20.80;67.10
56046;DHT22;41913;51.030;3.706;2023-02-28T09:31:58;20.90;67.00
56046;DHT22;41913;51.030;3.706;2023-02-28T09:34:25;20.90;66.90
56046;DHT22;41913;51.030;3.706;2023-02-28T09:36:51;20.90;66.80
56046;DHT22;41913;51.030;3.706;2023-02-28T09:39:20;20.90;66.60
56046;DHT22;41913;51.030;3.706;2023-02-28T09:41:50;21.00;66.40
56046;DHT22;41913;51.030;3.706;2023-02-28T09:46:49;21.00;66.00
56046;DHT22;41913;51.030;3.706;2023-02-28T09:49:20;21.00;65.80
56046;DHT22;41913;51.030;3.706;2023-02-28T09:51:57;21.00;65.60
56046;DHT22;41913;51.030;3.706;2023-02-28T09:54:27;21.00;65.50
56046;DHT22;41913;51.030;3.706;2023-02-28T09:59:59;21.00;65.20
56046;DHT22;41913;51.030;3.706;2023-02-28T10:05:19;21.10;64.90
56046;DHT22;41913;51.030;3.706;2023-02-28T10:08:16;21.10;64.80
56046;DHT22;41913;51.030;3.706;2023-02-28T10:10:45;21.10;64.70
56046;DHT22;41913;51.030;3.706;2023-02-28T10:13:29;21.10;64.60
56046;DHT22;41913;51.030;3.706;2023-02-28T10:16:00;21.10;64.40
56046;DHT22;41913;51.030;3.706;2023-02-28T10:18:43;21.20;65.00
56046;DHT22;41913;51.030;3.706;2023-02-28T10:21:21;21.20;64.30
56046;DHT22;41913;51.030;3.706;2023-02-28T10:23:49;21.20;64.30
56046;DHT22;41913;51.030;3.706;2023-02-28T10:26:17;21.20;64.30
56046;DHT22;41913;51.030;3.706;2023-02-28T10:28:43;21.30;64.40
56046;DHT22;41913;51.030;3.706;2023-02-28T10:31:17;21.30;64.60
56046;DHT22;41913;51.030;3.706;2023-02-28T10:33:44;21.40;64.70
56046;DHT22;41913;51.030;3.706;2023-02-28T10:36:15;21.50;64.90
56046;DHT22;41913;51.030;3.706;2023-02-28T10:38:43;21.50;64.90
56046;DHT22;41913;51.030;3.706;2023-02-28T10:41:13;21.50;65.40
56046;DHT22;41913;51.030;3.706;2023-02-28T10:43:41;21.40;64.80
56046;DHT22;41913;51.030;3.706;2023-02-28T10:46:11;21.40;64.70
56046;DHT22;41913;51.030;3.706;2023-02-28T10:48:45;21.30;64.80
56046;DHT22;41913;51.030;3.706;2023-02-28T10:51:13;21.30;64.60
56046;DHT22;41913;51.030;3.706;2023-02-28T10:53:48;21.20;64.50
56046;DHT22;41913;51.030;3.706;2023-02-28T10:56:18;21.20;64.40
56046;DHT22;41913;51.030;3.706;2023-02-28T10:59:46;21.20;64.40
56046;DHT22;41913;51.030;3.706;2023-02-28T11:01:47;21.10;64.50
56046;DHT22;41913;51.030;3.706;2023-02-28T11:07:03;20.90;64.50
56046;DHT22;41913;51.030;3.706;2023-02-28T11:09:38;20.90;64.60
56046;DHT22;41913;51.030;3.706;2023-02-28T11:12:07;20.90;64.60
56046;DHT22;41913;51.030;3.706;2023-02-28T11:14:47;20.90;64.50
56046;DHT22;41913;51.030;3.706;2023-02-28T11:17:26;20.80;64.30
56046;DHT22;41913;51.030;3.706;2023-02-28T11:19:58;20.80;64.20
56046;DHT22;41913;51.030;3.706;2023-02-28T11:22:27;20.80;64.10
56046;DHT22;41913;51.030;3.706;2023-02-28T11:25:02;20.80;64.60
56046;DHT22;41913;51.030;3.706;2023-02-28T11:29:59;20.70;63.90
56046;DHT22;41913;51.030;3.706;2023-02-28T11:32:30;20.70;64.00
56046;DHT22;41913;51.030;3.706;2023-02-28T11:37:38;20.70;64.00
56046;DHT22;41913;51.030;3.706;2023-02-28T11:40:18;20.60;63.90
56046;DHT22;41913;51.030;3.706;2023-02-28T11:43:09;20.70;63.90
56046;DHT22;41913;51.030;3.706;2023-02-28T11:51:34;20.60;63.50
56046;DHT22;41913;51.030;3.706;2023-02-28T11:54:24;20.70;63.50
56046;DHT22;41913;51.030;3.706;2023-02-28T11:59:55;20.60;63.40
56046;DHT22;41913;51.030;3.706;2023-02-28T12:05:21;20.60;63.30
56046;DHT22;41913;51.030;3.706;2023-02-28T12:08:21;20.50;63.30
56046;DHT22;41913;51.030;3.706;2023-02-28T12:11:38;20.60;63.20
56046;DHT22;41913;51.030;3.706;2023-02-28T12:22:31;20.60;63.00
56046;DHT22;41913;51.030;3.706;2023-02-28T12:27:41;20.50;62.80
56046;DHT22;41913;51.030;3.706;2023-02-28T12:30:21;20.50;62.80
56046;DHT22;41913;51.030;3.706;2023-02-28T12:32:53;20.50;62.90
56046;DHT22;41913;51.030;3.706;2023-02-28T12:35:49;20.50;62.80
56046;DHT22;41913;51.030;3.706;2023-02-28T12:38:28;20.40;62.70
56046;DHT22;41913;51.030;3.706;2023-02-28T12:41:03;20.50;62.70
56046;DHT22;41913;51.030;3.706;2023-02-28T12:43:42;20.50;62.60
56046;DHT22;41913;51.030;3.706;2023-02-28T12:46:33;20.50;62.60
56046;DHT22;41913;51.030;3.706;2023-02-28T12:49:06;20.50;62.50
56046;DHT22;41913;51.030;3.706;2023-02-28T12:51:34;20.50;62.50
56046;DHT22;41913;51.030;3.706;2023-02-28T12:54:18;20.50;62.40
56046;DHT22;41913;51.030;3.706;2023-02-28T12:56:53;20.50;62.50
56046;DHT22;41913;51.030;3.706;2023-02-28T13:05:15;20.50;62.30
56046;DHT22;41913;51.030;3.706;2023-02-28T13:13:14;20.40;62.20
56046;DHT22;41913;51.030;3.706;2023-02-28T13:15:41;20.40;62.20
56046;DHT22;41913;51.030;3.706;2023-02-28T13:18:43;20.40;62.20
56046;DHT22;41913;51.030;3.706;2023-02-28T13:21:23;20.40;62.20
56046;DHT22;41913;51.030;3.706;2023-02-28T13:34:39;20.50;62.10
56046;DHT22;41913;51.030;3.706;2023-02-28T13:39:54;20.50;62.00
56046;DHT22;41913;51.030;3.706;2023-02-28T13:42:36;20.40;61.90
56046;DHT22;41913;51.030;3.706;2023-02-28T13:47:44;20.40;61.90
56046;DHT22;41913;51.030;3.706;2023-02-28T14:07:06;20.50;61.70
56046;DHT22;41913;51.030;3.706;2023-02-28T14:09:46;20.50;61.70
56046;DHT22;41913;51.030;3.706;2023-02-28T14:12:52;20.50;61.70
56046;DHT22;41913;51.030;3.706;2023-02-28T14:18:35;20.40;61.70
56046;DHT22;41913;51.030;3.706;2023-02-28T14:31:54;20.50;61.60
56046;DHT22;41913;51.030;3.706;2023-02-28T14:34:48;20.60;61.60
56046;DHT22;41913;51.030;3.706;2023-02-28T14:37:24;20.60;61.60
56046;DHT22;41913;51.030;3.706;2023-02-28T14:39:53;20.50;61.50
56046;DHT22;41913;51.030;3.706;2023-02-28T14:42:33;20.50;61.50
56046;DHT22;41913;51.030;3.706;2023-02-28T14:45:00;20.50;61.50
56046;DHT22;41913;51.030;3.706;2023-02-28T14:47:31;20.50;61.60
56046;DHT22;41913;51.030;3.706;2023-02-28T14:49:59;20.50;61.50
56046;DHT22;41913;51.030;3.706;2023-02-28T14:52:31;20.60;62.10
56046;DHT22;41913;51.030;3.706;2023-02-28T14:55:00;20.60;61.50
56046;DHT22;41913;51.030;3.706;2023-02-28T14:57:30;20.60;61.40
56046;DHT22;41913;51.030;3.706;2023-02-28T15:00:23;20.60;61.40
56046;DHT22;41913;51.030;3.706;2023-02-28T15:02:49;20.60;61.40
56046;DHT22;41913;51.030;3.706;2023-02-28T15:07:45;20.60;61.40
56046;DHT22;41913;51.030;3.706;2023-02-28T15:10:16;20.60;61.60
56046;DHT22;41913;51.030;3.706;2023-02-28T15:15:19;20.60;61.80
56046;DHT22;41913;51.030;3.706;2023-02-28T15:17:53;20.60;61.80
56046;DHT22;41913;51.030;3.706;2023-02-28T15:20:20;20.70;61.80
56046;DHT22;41913;51.030;3.706;2023-02-28T15:22:48;20.70;61.70
56046;DHT22;41913;51.030;3.706;2023-02-28T15:25:19;20.70;61.80
56046;DHT22;41913;51.030;3.706;2023-02-28T15:27:48;20.70;61.70
56046;DHT22;41913;51.030;3.706;2023-02-28T15:30:18;20.70;61.70
56046;DHT22;41913;51.030;3.706;2023-02-28T15:32:44;20.70;61.60
56046;DHT22;41913;51.030;3.706;2023-02-28T15:40:31;20.60;61.60
56046;DHT22;41913;51.030;3.706;2023-02-28T15:43:18;20.60;61.60
56046;DHT22;41913;51.030;3.706;2023-02-28T15:48:25;20.70;61.60
56046;DHT22;41913;51.030;3.706;2023-02-28T15:51:02;20.70;61.50
56046;DHT22;41913;51.030;3.706;2023-02-28T15:53:32;20.70;61.40
56046;DHT22;41913;51.030;3.706;2023-02-28T15:56:05;20.70;61.20
56046;DHT22;41913;51.030;3.706;2023-02-28T15:58:32;20.70;61.20
56046;DHT22;41913;51.030;3.706;2023-02-28T16:01:05;20.70;61.10
56046;DHT22;41913;51.030;3.706;2023-02-28T16:03:39;20.60;60.90
56046;DHT22;41913;51.030;3.706;2023-02-28T16:06:26;20.60;60.90
56046;DHT22;41913;51.030;3.706;2023-02-28T16:08:53;20.60;60.80
56046;DHT22;41913;51.030;3.706;2023-02-28T16:11:21;20.60;60.80
56046;DHT22;41913;51.030;3.706;2023-02-28T16:13:47;20.70;60.80
56046;DHT22;41913;51.030;3.706;2023-02-28T16:16:21;20.70;61.00
56046;DHT22;41913;51.030;3.706;2023-02-28T16:18:48;20.80;61.00
56046;DHT22;41913;51.030;3.706;2023-02-28T16:21:14;20.80;61.10
56046;DHT22;41913;51.030;3.706;2023-02-28T16:23:39;20.80;61.20
56046;DHT22;41913;51.030;3.706;2023-02-28T16:26:05;20.90;61.30
56046;DHT22;41913;51.030;3.706;2023-02-28T16:28:34;20.90;61.30
56046;DHT22;41913;51.030;3.706;2023-02-28T16:31:02;20.80;61.40
56046;DHT22;41913;51.030;3.706;2023-02-28T16:33:32;20.90;61.60
56046;DHT22;41913;51.030;3.706;2023-02-28T16:35:59;20.90;61.60
56046;DHT22;41913;51.030;3.706;2023-02-28T16:38:24;20.90;61.60
56046;DHT22;41913;51.030;3.706;2023-02-28T16:40:51;20.90;61.60
56046;DHT22;41913;51.030;3.706;2023-02-28T16:43:23;20.90;61.60
56046;DHT22;41913;51.030;3.706;2023-02-28T16:45:55;20.90;61.50
56046;DHT22;41913;51.030;3.706;2023-02-28T16:48:21;20.90;61.40
56046;DHT22;41913;51.030;3.706;2023-02-28T16:50:47;20.90;61.30
56046;DHT22;41913;51.030;3.706;2023-02-28T16:53:12;20.90;61.30
56046;DHT22;41913;51.030;3.706;2023-02-28T16:55:38;20.90;61.40
56046;DHT22;41913;51.030;3.706;2023-02-28T16:58:05;20.90;61.60
56046;DHT22;41913;51.030;3.706;2023-02-28T17:00:32;20.90;62.20
56046;DHT22;41913;51.030;3.706;2023-02-28T17:02:58;20.90;61.70
56046;DHT22;41913;51.030;3.706;2023-02-28T17:05:37;20.90;61.90
56046;DHT22;41913;51.030;3.706;2023-02-28T17:08:05;20.90;61.90
56046;DHT22;41913;51.030;3.706;2023-02-28T17:10:30;20.90;61.90
56046;DHT22;41913;51.030;3.706;2023-02-28T17:12:56;21.00;62.00
56046;DHT22;41913;51.030;3.706;2023-02-28T17:15:22;21.00;62.00
56046;DHT22;41913;51.030;3.706;2023-02-28T17:17:48;21.00;61.90
56046;DHT22;41913;51.030;3.706;2023-02-28T17:20:20;21.00;61.90
56046;DHT22;41913;51.030;3.706;2023-02-28T17:22:50;21.00;61.80
56046;DHT22;41913;51.030;3.706;2023-02-28T17:25:16;20.90;61.90
56046;DHT22;41913;51.030;3.706;2023-02-28T17:27:42;20.90;61.90
56046;DHT22;41913;51.030;3.706;2023-02-28T17:30:23;20.90;62.00
56046;DHT22;41913;51.030;3.706;2023-02-28T17:32:49;20.90;62.10
56046;DHT22;41913;51.030;3.706;2023-02-28T17:35:15;20.90;62.20
56046;DHT22;41913;51.030;3.706;2023-02-28T17:37:41;20.80;62.30
56046;DHT22;41913;51.030;3.706;2023-02-28T17:40:16;20.80;62.30
56046;DHT22;41913;51.030;3.706;2023-02-28T17:42:43;20.80;62.40
56046;DHT22;41913;51.030;3.706;2023-02-28T17:45:10;20.80;62.50
56046;DHT22;41913;51.030;3.706;2023-02-28T17:47:36;20.70;62.50
56046;DHT22;41913;51.030;3.706;2023-02-28T17:50:02;20.70;62.60
56046;DHT22;41913;51.030;3.706;2023-02-28T17:52:28;20.70;62.60
56046;DHT22;41913;51.030;3.706;2023-02-28T17:54:54;20.60;62.70
56046;DHT22;41913;51.030;3.706;2023-02-28T17:57:21;20.60;62.70
56046;DHT22;41913;51.030;3.706;2023-02-28T17:59:47;20.50;62.70
56046;DHT22;41913;51.030;3.706;2023-02-28T18:02:13;20.50;62.80
56046;DHT22;41913;51.030;3.706;2023-02-28T18:04:39;20.40;62.80
56046;DHT22;41913;51.030;3.706;2023-02-28T18:07:06;20.40;62.90
56046;DHT22;41913;51.030;3.706;2023-02-28T18:09:34;20.40;63.00